createdAt,value
2019-05-19T00:01:18.015Z,44.13
2019-05-19T00:03:48.262Z,45.00
2019-05-19T00:06:19.018Z,45.33
2019-05-19T00:08:49.314Z,44.95
2019-05-19T00:11:19.819Z,47.17
2019-05-19T00:13:50.111Z,44.42
2019-05-19T00:16:20.369Z,43.33
2019-05-19T00:18:50.606Z,48.48
2019-05-19T00:21:20.796Z,47.15
2019-05-19T00:23:51.183Z,44.95
2019-05-19T00:26:21.738Z,44.37
2019-05-19T00:28:52.437Z,45.43
2019-05-19T00:31:22.846Z,44.27
2019-05-19T00:33:53.140Z,45.20
2019-05-19T00:36:23.718Z,44.10
2019-05-19T00:38:54.370Z,44.85
2019-05-19T00:41:24.576Z,44.60
2019-05-19T00:43:54.991Z,43.58
2019-05-19T00:46:37.227Z,44.57
2019-05-19T00:49:07.561Z,44.53
2019-05-19T00:51:38.403Z,46.15
2019-05-19T00:54:09.096Z,46.50
2019-05-19T00:56:39.784Z,42.62
2019-05-19T00:59:11.001Z,43.63
2019-05-19T01:01:41.315Z,44.47
2019-05-19T01:04:11.731Z,44.25
2019-05-19T01:06:42.032Z,42.40
2019-05-19T01:09:13.479Z,44.03
2019-05-19T01:11:44.140Z,45.67
2019-05-19T01:14:15.430Z,44.15
2019-05-19T01:16:46.128Z,45.40
2019-05-19T01:19:16.353Z,46.30
2019-05-19T01:21:47.129Z,45.83
2019-05-19T01:24:17.405Z,46.23
2019-05-19T01:26:47.620Z,48.10
2019-05-19T01:29:17.886Z,45.70
2019-05-19T01:31:48.158Z,45.57
2019-05-19T01:34:18.722Z,48.28
2019-05-19T01:36:49.291Z,45.83
2019-05-19T01:39:19.921Z,48.33
2019-05-19T01:41:50.175Z,46.75
2019-05-19T01:44:20.367Z,47.35
2019-05-19T01:46:50.928Z,48.60
2019-05-19T01:49:21.530Z,48.50
2019-05-19T01:51:52.172Z,50.00
2019-05-19T01:54:22.375Z,48.57
2019-05-19T01:56:52.989Z,48.52
2019-05-19T01:59:23.475Z,47.62
2019-05-19T02:01:54.898Z,48.90
2019-05-19T02:04:25.956Z,48.87
2019-05-19T02:06:56.565Z,49.27
2019-05-19T02:09:26.856Z,49.90
2019-05-19T02:11:57.124Z,51.10
2019-05-19T02:14:27.415Z,51.05
2019-05-19T02:16:57.780Z,50.73
2019-05-19T02:19:28.309Z,50.83
2019-05-19T02:21:58.852Z,49.87
2019-05-19T02:24:29.108Z,51.33
2019-05-19T02:26:59.363Z,51.70
2019-05-19T02:29:29.787Z,50.57
2019-05-19T02:32:00.405Z,51.80
2019-05-19T02:34:30.779Z,51.67
2019-05-19T02:37:01.472Z,52.10
2019-05-19T02:39:31.790Z,50.25
2019-05-19T02:42:04.400Z,52.83
2019-05-19T02:44:36.815Z,53.40
2019-05-19T02:47:08.124Z,54.40
2019-05-19T02:49:39.609Z,56.30
2019-05-19T02:52:11.769Z,52.55
2019-05-19T02:54:42.445Z,53.90
2019-05-19T02:57:12.773Z,52.25
2019-05-19T02:59:45.267Z,53.63
2019-05-19T03:02:15.545Z,53.28
2019-05-19T03:04:47.486Z,54.30
2019-05-19T03:07:17.623Z,56.60
2019-05-19T03:09:52.548Z,53.37
2019-05-19T03:12:23.377Z,55.33
2019-05-19T03:14:54.048Z,54.80
2019-05-19T03:17:25.873Z,53.77
2019-05-19T03:19:56.173Z,56.80
2019-05-19T03:22:26.640Z,55.03
2019-05-19T03:24:57.244Z,57.70
2019-05-19T03:27:27.490Z,58.30
2019-05-19T03:29:59.752Z,55.23
2019-05-19T03:32:37.905Z,53.70
2019-05-19T03:35:08.305Z,55.73
2019-05-19T03:37:38.895Z,57.43
2019-05-19T03:40:20.458Z,59.60
2019-05-19T03:42:53.670Z,57.20
2019-05-19T03:45:23.929Z,59.38
2019-05-19T03:47:54.226Z,58.23
2019-05-19T03:50:24.855Z,59.73
2019-05-19T03:52:55.019Z,60.28
2019-05-19T03:55:25.677Z,58.73
2019-05-19T03:57:56.341Z,58.77
2019-05-19T04:00:26.770Z,58.80
2019-05-19T04:02:57.376Z,62.17
2019-05-19T04:05:27.680Z,56.90
2019-05-19T04:07:58.042Z,56.63
2019-05-19T04:10:28.333Z,58.43
2019-05-19T04:12:58.534Z,60.10
2019-05-19T04:15:29.118Z,58.33
2019-05-19T04:17:59.435Z,58.87
2019-05-19T04:20:29.721Z,59.83
2019-05-19T04:23:00.284Z,59.00
2019-05-19T04:25:30.908Z,58.27
2019-05-19T04:28:01.449Z,59.00
2019-05-19T04:30:31.738Z,57.43
2019-05-19T04:33:01.914Z,56.63
2019-05-19T04:35:32.153Z,56.90
2019-05-19T04:38:02.435Z,57.80
2019-05-19T04:40:32.727Z,54.60
2019-05-19T04:43:02.981Z,54.48
2019-05-19T04:45:33.478Z,56.53
2019-05-19T04:48:09.216Z,57.10
2019-05-19T04:50:37.640Z,58.73
2019-05-19T04:53:08.368Z,57.27
2019-05-19T04:55:38.676Z,59.08
2019-05-19T04:58:10.106Z,58.37
2019-05-19T05:00:40.358Z,57.13
2019-05-19T05:03:10.518Z,58.60
2019-05-19T05:05:40.834Z,58.47
2019-05-19T05:08:28.056Z,56.53
2019-05-19T05:10:43.563Z,59.87
2019-05-19T05:13:13.785Z,57.77
2019-05-19T05:15:45.199Z,56.92
2019-05-19T05:18:15.864Z,60.73
2019-05-19T05:20:46.075Z,56.90
2019-05-19T05:23:16.347Z,60.87
2019-05-19T05:25:46.854Z,57.70
2019-05-19T05:28:17.081Z,59.65
2019-05-19T05:30:47.706Z,60.17
2019-05-19T05:33:18.453Z,57.47
2019-05-19T05:35:49.148Z,58.20
2019-05-19T05:38:19.781Z,59.20
2019-05-19T05:40:50.445Z,62.08
2019-05-19T05:43:21.075Z,61.50
2019-05-19T05:45:51.381Z,60.10
2019-05-19T05:48:21.552Z,60.43
2019-05-19T05:50:52.694Z,59.77
2019-05-19T05:53:22.928Z,57.67
2019-05-19T05:55:53.168Z,57.63
2019-05-19T05:58:23.428Z,59.87
2019-05-19T06:00:54.176Z,60.00
2019-05-19T06:03:24.449Z,61.67
2019-05-19T06:05:55.080Z,57.73
2019-05-19T06:08:25.335Z,57.33
2019-05-19T06:10:56.525Z,61.77
2019-05-19T06:13:26.838Z,61.00
2019-05-19T06:15:58.363Z,60.20
2019-05-19T06:18:28.705Z,61.28
2019-05-19T06:20:59.022Z,60.97
2019-05-19T06:23:29.507Z,62.00
2019-05-19T06:25:59.733Z,63.38
2019-05-19T06:28:30.029Z,64.45
2019-05-19T06:31:00.615Z,63.40
2019-05-19T06:33:30.910Z,62.90
2019-05-19T06:36:03.035Z,65.70
2019-05-19T06:38:34.134Z,62.73
2019-05-19T06:41:04.799Z,64.37
2019-05-19T06:43:35.481Z,65.13
2019-05-19T06:46:05.877Z,64.80
2019-05-19T06:48:36.151Z,64.17
2019-05-19T06:51:06.370Z,65.87
2019-05-19T06:53:37.039Z,66.15
2019-05-19T06:56:07.719Z,67.85
2019-05-19T06:58:37.992Z,68.03
2019-05-19T07:01:08.346Z,65.60
2019-05-19T07:03:38.941Z,64.85
2019-05-19T07:06:09.250Z,66.17
2019-05-19T07:08:40.932Z,66.33
2019-05-19T07:11:11.544Z,66.07
2019-05-19T07:13:42.157Z,67.42
2019-05-19T07:16:13.673Z,70.33
2019-05-19T07:18:43.948Z,68.17
2019-05-19T07:21:14.329Z,67.92
2019-05-19T07:23:44.519Z,67.00
2019-05-19T07:26:15.110Z,67.27
2019-05-19T07:28:45.705Z,70.62
2019-05-19T07:31:17.115Z,69.97
2019-05-19T07:33:47.401Z,68.30
2019-05-19T07:36:18.096Z,67.72
2019-05-19T07:38:48.664Z,69.50
2019-05-19T07:41:18.993Z,66.30
2019-05-19T07:43:49.321Z,66.22
2019-05-19T07:46:19.633Z,65.25
2019-05-19T07:48:50.215Z,67.17
2019-05-19T07:51:20.423Z,66.90
2019-05-19T07:53:50.853Z,67.00
2019-05-19T07:56:21.377Z,68.12
2019-05-19T07:58:51.660Z,67.92
2019-05-19T08:01:22.130Z,67.32
2019-05-19T08:03:52.393Z,68.22
2019-05-19T08:06:22.735Z,65.87
2019-05-19T08:08:53.008Z,63.13
2019-05-19T08:11:23.297Z,65.67
2019-05-19T08:13:53.851Z,65.87
2019-05-19T08:16:24.459Z,63.78
2019-05-19T08:18:54.763Z,64.65
2019-05-19T08:21:25.558Z,64.80
2019-05-19T08:24:00.572Z,65.62
2019-05-19T08:26:28.339Z,66.45
2019-05-19T08:28:58.568Z,68.35
2019-05-19T08:31:29.098Z,65.37
2019-05-19T08:33:59.615Z,62.00
2019-05-19T08:36:30.370Z,64.72
2019-05-19T08:39:00.551Z,65.75
2019-05-19T08:41:30.992Z,63.67
2019-05-19T08:44:02.315Z,65.12
2019-05-19T08:46:32.881Z,62.08
2019-05-19T08:49:03.162Z,61.25
2019-05-19T08:51:33.835Z,62.73
2019-05-19T08:54:14.365Z,62.98
2019-05-19T08:56:36.364Z,63.15
2019-05-19T08:59:06.654Z,61.45
2019-05-19T09:01:36.956Z,61.42
2019-05-19T09:04:08.028Z,61.00
2019-05-19T09:06:38.326Z,62.43
2019-05-19T09:09:08.618Z,60.60
2019-05-19T09:11:39.905Z,62.60
2019-05-19T09:14:10.206Z,62.85
2019-05-19T09:16:41.188Z,61.58
2019-05-19T09:19:12.221Z,61.15
2019-05-19T09:21:42.907Z,64.22
2019-05-19T09:24:30.164Z,71.02
2019-05-19T09:26:51.076Z,75.32
2019-05-19T09:29:21.705Z,73.30
2019-05-19T09:31:52.016Z,65.90
2019-05-19T09:34:22.335Z,64.70
2019-05-19T09:36:53.454Z,64.50
2019-05-19T09:39:24.012Z,62.45
2019-05-19T09:41:54.342Z,64.30
2019-05-19T09:44:24.588Z,63.23
2019-05-19T09:46:54.979Z,59.77
2019-05-19T09:49:35.138Z,65.03
2019-05-19T09:52:07.299Z,65.47
2019-05-19T09:54:45.103Z,64.42
2019-05-19T09:57:09.736Z,62.78
2019-05-19T09:59:40.051Z,61.40
2019-05-19T10:02:10.372Z,59.88
2019-05-19T10:04:40.947Z,60.60
2019-05-19T10:07:12.058Z,59.88
2019-05-19T10:09:57.037Z,59.83
2019-05-19T10:12:28.811Z,56.73
2019-05-19T10:15:00.033Z,58.25
2019-05-19T10:17:30.394Z,56.45
2019-05-19T10:20:00.767Z,54.80
2019-05-19T10:22:31.461Z,57.80
2019-05-19T10:25:20.239Z,54.63
2019-05-19T10:27:34.241Z,55.12
2019-05-19T10:30:07.982Z,55.20
2019-05-19T10:32:38.978Z,56.48
2019-05-19T10:35:09.551Z,54.23
2019-05-19T10:37:42.690Z,55.03
2019-05-19T10:40:12.966Z,53.10
2019-05-19T10:42:43.877Z,57.45
2019-05-19T10:45:14.503Z,57.62
2019-05-19T10:47:44.974Z,56.15
2019-05-19T10:50:15.419Z,54.93
2019-05-19T10:52:45.777Z,53.35
2019-05-19T10:55:16.136Z,54.23
2019-05-19T10:57:46.828Z,53.63
2019-05-19T11:00:17.244Z,51.45
2019-05-19T11:02:47.714Z,51.53
2019-05-19T11:05:18.118Z,52.23
2019-05-19T11:07:48.837Z,51.33
2019-05-19T11:10:19.627Z,50.92
2019-05-19T11:12:50.226Z,48.23
2019-05-19T11:15:20.831Z,51.73
2019-05-19T11:17:51.471Z,52.13
2019-05-19T11:20:21.678Z,48.75
2019-05-19T11:22:52.021Z,49.00
2019-05-19T11:25:33.346Z,48.98
2019-05-19T11:27:56.282Z,48.13
2019-05-19T11:30:26.641Z,49.45
2019-05-19T11:32:57.021Z,46.68
2019-05-19T11:35:27.692Z,49.88
2019-05-19T11:37:58.403Z,48.63
2019-05-19T11:40:28.943Z,48.48
2019-05-19T11:42:59.631Z,47.30
2019-05-19T11:45:29.870Z,48.08
2019-05-19T11:48:00.117Z,49.05
2019-05-19T11:50:30.384Z,49.90
2019-05-19T11:53:00.992Z,46.50
2019-05-19T11:55:31.216Z,46.25
2019-05-19T11:58:01.789Z,46.88
2019-05-19T12:00:32.081Z,47.27
2019-05-19T12:03:02.368Z,44.38
2019-05-19T12:05:32.817Z,45.80
2019-05-19T12:08:03.923Z,45.25
2019-05-19T12:10:34.260Z,45.23
2019-05-19T12:13:05.410Z,48.23
2019-05-19T12:15:35.733Z,47.60
2019-05-19T12:18:06.421Z,46.65
2019-05-19T12:20:36.715Z,48.08
2019-05-19T12:23:06.962Z,48.52
2019-05-19T12:25:37.291Z,45.20
2019-05-19T12:28:07.603Z,47.88
2019-05-19T12:30:37.980Z,47.73
2019-05-19T12:33:08.560Z,47.78
2019-05-19T12:35:38.904Z,46.83
2019-05-19T12:38:12.404Z,47.65
2019-05-19T12:40:44.634Z,48.28
2019-05-19T12:43:15.382Z,50.35
2019-05-19T12:45:46.278Z,49.58
2019-05-19T12:48:16.676Z,48.73
2019-05-19T12:50:46.886Z,49.08
2019-05-19T12:53:43.096Z,45.73
2019-05-19T12:56:13.783Z,43.85
2019-05-19T12:58:44.839Z,44.48
2019-05-19T13:01:15.201Z,44.73
2019-05-19T13:03:46.166Z,44.08
2019-05-19T13:06:17.049Z,44.77
2019-05-19T13:08:47.660Z,45.35
2019-05-19T13:11:18.353Z,45.05
2019-05-19T13:13:48.742Z,46.05
2019-05-19T13:16:20.209Z,45.40
2019-05-19T13:18:50.622Z,46.77
2019-05-19T13:21:20.974Z,47.48
2019-05-19T13:23:51.340Z,45.20
2019-05-19T13:39:05.114Z,49.27
2019-05-19T13:41:36.015Z,49.58
2019-05-19T13:44:06.412Z,46.45
2019-05-19T13:46:36.703Z,47.30
2019-05-19T13:49:07.913Z,47.23
2019-05-19T13:51:38.593Z,46.65
2019-05-19T13:54:09.016Z,49.00
2019-05-19T13:56:39.803Z,50.90
2019-05-19T13:59:10.413Z,51.00
2019-05-19T14:01:40.746Z,49.83
2019-05-19T14:04:11.192Z,47.33
2019-05-19T14:06:42.739Z,46.20
2019-05-19T14:09:15.203Z,45.23
2019-05-19T14:11:44.994Z,42.70
2019-05-19T14:14:15.670Z,44.27
2019-05-19T14:16:45.994Z,40.10
2019-05-19T14:19:16.284Z,32.55
2019-05-19T14:21:47.403Z,34.00
2019-05-19T14:24:17.676Z,31.25
2019-05-19T14:26:48.001Z,30.62
2019-05-19T14:29:18.335Z,31.10
2019-05-19T14:31:48.793Z,27.52
2019-05-19T14:34:19.581Z,29.18
2019-05-19T14:36:49.839Z,32.15
2019-05-19T14:39:20.157Z,32.70
2019-05-19T14:41:54.709Z,29.55
2019-05-19T14:44:25.383Z,28.27
2019-05-19T14:46:55.617Z,30.02
2019-05-19T14:49:26.307Z,28.75
2019-05-19T14:51:56.691Z,29.05
2019-05-19T14:54:27.044Z,33.95
2019-05-19T15:09:38.063Z,28.17
2019-05-19T15:12:08.842Z,20.77
2019-05-19T15:14:39.133Z,8.38
2019-05-19T15:17:09.718Z,5.53
2019-05-19T15:19:50.242Z,6.10
2019-05-19T15:22:20.908Z,7.03
2019-05-19T15:24:51.224Z,8.48
2019-05-19T15:27:21.585Z,9.38
2019-05-19T15:29:51.925Z,11.10
2019-05-19T15:32:22.230Z,10.65
2019-05-19T15:34:52.559Z,11.22
2019-05-19T15:37:24.955Z,11.03
2019-05-19T15:39:55.228Z,12.17
2019-05-19T15:42:25.466Z,12.45
2019-05-19T15:44:55.820Z,12.83
2019-05-19T15:47:26.146Z,12.60
2019-05-19T15:49:56.415Z,12.40
2019-05-19T15:52:27.382Z,11.13
2019-05-19T15:54:57.785Z,12.33
2019-05-19T15:57:28.721Z,9.67
2019-05-19T15:59:59.340Z,9.35
2019-05-19T16:02:29.673Z,8.85
2019-05-19T16:04:59.914Z,8.63
2019-05-19T16:07:30.243Z,9.70
2019-05-19T16:10:00.587Z,9.30
2019-05-19T16:12:30.859Z,11.08
2019-05-19T16:15:01.240Z,11.15
2019-05-19T16:17:31.842Z,10.53
2019-05-19T16:20:04.511Z,10.85
2019-05-19T16:22:36.317Z,9.85
2019-05-19T16:25:07.793Z,10.30
2019-05-19T16:27:37.962Z,9.73
2019-05-19T16:30:08.756Z,11.50
2019-05-19T16:32:39.642Z,10.58
2019-05-19T16:35:10.176Z,11.63
2019-05-19T16:37:40.572Z,10.90
2019-05-19T16:40:11.531Z,11.20
2019-05-19T16:42:42.096Z,10.10
2019-05-19T16:45:14.238Z,10.85
2019-05-19T16:47:44.514Z,9.93
2019-05-19T16:50:16.064Z,10.87
2019-05-19T16:52:46.369Z,10.80
2019-05-19T16:55:25.311Z,12.35
2019-05-19T16:57:56.056Z,12.25
2019-05-19T17:00:27.768Z,12.47
2019-05-19T17:02:58.156Z,13.60
2019-05-19T17:05:29.769Z,17.30
2019-05-19T17:08:00.813Z,17.10
2019-05-19T17:10:31.070Z,18.65
2019-05-19T17:13:01.670Z,20.77
2019-05-19T17:15:32.050Z,22.40
2019-05-19T17:18:02.344Z,22.70
2019-05-19T17:20:32.680Z,23.83
2019-05-19T17:23:03.159Z,23.07
2019-05-19T17:25:33.406Z,23.57
2019-05-19T17:28:03.688Z,23.52
2019-05-19T17:30:34.978Z,23.70
2019-05-19T17:33:05.463Z,22.70
2019-05-19T17:35:35.886Z,22.07
2019-05-19T17:38:06.477Z,23.83
2019-05-19T17:40:37.007Z,23.55
2019-05-19T17:43:07.698Z,22.63
2019-05-19T17:45:38.054Z,23.38
2019-05-19T17:48:11.652Z,22.23
2019-05-19T17:50:40.242Z,23.18
2019-05-19T17:53:10.899Z,27.47
2019-05-19T17:55:43.372Z,25.47
2019-05-19T17:58:13.691Z,24.85
2019-05-19T18:00:44.458Z,23.63
2019-05-19T18:03:14.744Z,23.90
2019-05-19T18:05:45.408Z,24.92
2019-05-19T18:08:15.848Z,24.57
2019-05-19T18:10:46.108Z,26.50
2019-05-19T18:13:16.783Z,24.87
2019-05-19T18:15:47.360Z,27.32
2019-05-19T18:18:17.761Z,26.77
2019-05-19T18:20:47.949Z,27.60
2019-05-19T18:23:18.899Z,30.60
2019-05-19T18:25:49.191Z,28.38
2019-05-19T18:28:19.515Z,28.53
2019-05-19T18:30:49.821Z,29.80
2019-05-19T18:33:20.131Z,31.65
2019-05-19T18:35:50.454Z,32.55
2019-05-19T18:38:20.833Z,34.20
2019-05-19T18:40:51.131Z,34.25
2019-05-19T18:43:21.595Z,32.28
2019-05-19T18:45:51.888Z,33.08
2019-05-19T18:48:23.435Z,34.03
2019-05-19T18:50:54.621Z,33.50
2019-05-19T18:53:25.271Z,31.47
2019-05-19T18:55:55.890Z,34.23
2019-05-19T18:58:28.035Z,36.65
2019-05-19T19:00:58.324Z,36.73
2019-05-19T19:03:28.658Z,37.20
2019-05-19T19:05:58.889Z,38.55
2019-05-19T19:08:29.411Z,37.53
2019-05-19T19:10:59.641Z,41.10
2019-05-19T19:13:30.371Z,40.98
2019-05-19T19:16:00.623Z,41.80
2019-05-19T19:18:30.995Z,49.50
2019-05-19T19:21:01.447Z,49.03
2019-05-19T19:23:32.502Z,45.30
2019-05-19T19:26:03.205Z,44.05
2019-05-19T19:28:34.246Z,44.57
2019-05-19T19:31:04.461Z,44.90
2019-05-19T19:33:34.778Z,47.08
2019-05-19T19:36:05.117Z,50.03
2019-05-19T19:38:35.532Z,52.10
2019-05-19T19:41:05.845Z,52.90
2019-05-19T19:43:36.483Z,54.80
2019-05-19T19:46:06.777Z,53.97
2019-05-19T19:48:37.071Z,54.73
2019-05-19T19:51:07.374Z,52.93
2019-05-19T19:53:37.720Z,52.60
2019-05-19T19:56:08.172Z,51.70
2019-05-19T19:58:38.419Z,52.00
2019-05-19T20:01:08.735Z,47.57
2019-05-19T20:03:40.550Z,50.40
2019-05-19T20:06:11.092Z,48.57
2019-05-19T20:08:41.890Z,47.07
2019-05-19T20:11:12.683Z,48.55
2019-05-19T20:13:42.926Z,47.38
2019-05-19T20:16:14.026Z,48.13
2019-05-19T20:18:44.384Z,47.67
2019-05-19T20:21:14.764Z,50.73
2019-05-19T20:23:45.079Z,48.43
2019-05-19T20:26:15.362Z,49.98
2019-05-19T20:28:45.664Z,52.17
2019-05-19T20:31:15.967Z,54.73
2019-05-19T20:33:46.233Z,57.85
2019-05-19T20:36:16.393Z,58.67
2019-05-19T20:38:46.775Z,61.37
2019-05-19T20:41:18.536Z,61.93
2019-05-19T20:43:50.197Z,64.93
2019-05-19T20:46:20.750Z,63.20
2019-05-19T20:48:51.008Z,65.43
2019-05-19T20:51:21.640Z,64.00
2019-05-19T20:53:53.409Z,64.33
2019-05-19T20:56:23.721Z,64.80
2019-05-19T20:58:54.371Z,63.13
2019-05-19T21:01:24.612Z,65.57
2019-05-19T21:03:54.990Z,64.90
2019-05-19T21:06:25.264Z,64.13
2019-05-19T21:08:55.590Z,63.73
2019-05-19T21:11:26.764Z,65.17
2019-05-19T21:13:57.090Z,68.50
2019-05-19T21:16:27.785Z,65.43
2019-05-19T21:19:11.908Z,66.10
2019-05-19T21:21:42.072Z,65.57
2019-05-19T21:24:12.408Z,65.00
2019-05-19T21:26:43.006Z,68.65
2019-05-19T21:29:13.331Z,69.50
2019-05-19T21:31:43.623Z,65.53
2019-05-19T21:34:14.321Z,68.10
2019-05-19T21:36:45.941Z,66.87
2019-05-19T21:39:16.520Z,67.77
2019-05-19T21:41:46.731Z,64.33
2019-05-19T21:44:17.212Z,62.30
2019-05-19T21:46:47.830Z,65.40
2019-05-19T21:49:18.150Z,63.13
2019-05-19T21:51:49.597Z,63.73
2019-05-19T21:54:19.930Z,62.33
2019-05-19T21:56:50.241Z,60.87
2019-05-19T21:59:20.472Z,57.90
2019-05-19T22:01:50.992Z,61.20
2019-05-19T22:04:21.301Z,58.23
2019-05-19T22:06:58.755Z,59.50
2019-05-19T22:09:29.295Z,56.03
2019-05-19T22:11:59.575Z,55.73
2019-05-19T22:14:30.051Z,54.10
2019-05-19T22:17:00.593Z,55.40
2019-05-19T22:19:30.915Z,54.93
2019-05-19T22:22:01.204Z,53.80
2019-05-19T22:24:31.538Z,56.90
2019-05-19T22:27:02.179Z,55.83
2019-05-19T22:29:32.505Z,56.13
2019-05-19T22:32:02.805Z,55.33
2019-05-19T22:34:33.468Z,54.77
2019-05-19T22:37:03.762Z,52.43
2019-05-19T22:39:34.076Z,51.33
2019-05-19T22:42:04.771Z,55.10
2019-05-19T22:44:35.118Z,54.83
2019-05-19T22:47:05.360Z,57.80
2019-05-19T22:49:36.041Z,56.30
2019-05-19T22:52:06.958Z,53.70
2019-05-19T22:54:37.203Z,55.20
2019-05-19T22:57:07.469Z,57.80
2019-05-19T22:59:37.851Z,58.20
2019-05-19T23:02:09.363Z,55.33
2019-05-19T23:04:39.781Z,53.50
2019-05-19T23:07:10.427Z,57.53
2019-05-19T23:09:42.532Z,57.57
2019-05-19T23:12:12.711Z,56.73
2019-05-19T23:14:43.108Z,55.83
2019-05-19T23:17:14.020Z,58.40
2019-05-19T23:19:44.646Z,54.23
2019-05-19T23:22:14.938Z,51.43
2019-05-19T23:24:45.481Z,55.07
2019-05-19T23:27:16.014Z,54.23
2019-05-19T23:29:46.331Z,58.83
2019-05-19T23:32:16.478Z,54.93
2019-05-19T23:34:47.097Z,52.23
2019-05-19T23:37:17.288Z,54.30
2019-05-19T23:39:48.493Z,55.53
2019-05-19T23:42:18.905Z,54.43
2019-05-19T23:44:49.473Z,52.33
2019-05-19T23:47:19.749Z,54.73
2019-05-19T23:49:58.185Z,54.67
2019-05-19T23:52:30.045Z,52.93
2019-05-19T23:55:01.027Z,50.97
2019-05-19T23:57:31.709Z,54.73
